createdAt,value
2019-06-18T00:01:50.552Z,49.40
2019-06-18T00:04:21.389Z,49.30
2019-06-18T00:06:51.099Z,49.60
2019-06-18T00:09:21.140Z,49.90
2019-06-18T00:11:51.322Z,50.10
2019-06-18T00:14:20.790Z,50.20
2019-06-18T00:16:51.252Z,50.50
2019-06-18T00:19:21.326Z,50.60
2019-06-18T00:21:51.234Z,50.60
2019-06-18T00:24:20.684Z,50.60
2019-06-18T00:26:50.858Z,50.60
2019-06-18T00:29:21.039Z,50.70
2019-06-18T00:31:50.561Z,51.00
2019-06-18T00:34:21.180Z,51.40
2019-06-18T00:36:50.934Z,51.60
2019-06-18T00:39:18.931Z,51.70
2019-06-18T00:41:48.025Z,51.60
2019-06-18T00:44:17.284Z,51.70
2019-06-18T00:46:47.829Z,51.40
2019-06-18T00:49:17.517Z,51.70
2019-06-18T00:51:47.872Z,53.00
2019-06-18T00:54:17.392Z,52.40
2019-06-18T00:56:46.916Z,52.30
2019-06-18T00:59:16.634Z,52.60
2019-06-18T01:01:44.216Z,52.90
2019-06-18T01:04:12.661Z,52.70
2019-06-18T01:06:41.513Z,52.90
2019-06-18T01:09:09.658Z,53.10
2019-06-18T01:11:38.248Z,53.40
2019-06-18T01:14:07.825Z,53.40
2019-06-18T01:16:38.788Z,53.30
2019-06-18T01:19:07.258Z,53.50
2019-06-18T01:21:37.933Z,53.60
2019-06-18T01:24:04.956Z,53.40
2019-06-18T01:26:32.892Z,53.30
2019-06-18T01:29:02.385Z,53.40
2019-06-18T01:31:32.697Z,53.50
2019-06-18T01:34:00.113Z,53.70
2019-06-18T01:36:28.119Z,54.00
2019-06-18T01:38:56.059Z,54.20
2019-06-18T01:41:23.772Z,54.00
2019-06-18T01:43:52.990Z,54.10
2019-06-18T01:46:31.943Z,54.00
2019-06-18T01:48:53.258Z,54.00
2019-06-18T01:51:23.113Z,54.70
2019-06-18T01:53:52.941Z,54.60
2019-06-18T01:56:22.816Z,55.20
2019-06-18T01:58:52.943Z,55.10
2019-06-18T02:01:23.600Z,55.20
2019-06-18T02:03:52.937Z,55.40
2019-06-18T02:06:23.716Z,55.60
2019-06-18T02:08:52.549Z,55.50
2019-06-18T02:11:22.537Z,55.80
2019-06-18T02:13:49.628Z,55.90
2019-06-18T02:16:17.331Z,56.20
2019-06-18T02:18:45.609Z,56.10
2019-06-18T02:21:14.083Z,55.70
2019-06-18T02:23:42.858Z,56.10
2019-06-18T02:26:13.838Z,55.70
2019-06-18T02:28:43.291Z,56.20
2019-06-18T02:31:13.977Z,56.10
2019-06-18T02:33:44.263Z,56.30
2019-06-18T02:36:13.021Z,56.10
2019-06-18T02:38:43.170Z,56.00
2019-06-18T02:41:12.588Z,56.30
2019-06-18T02:43:42.808Z,56.00
2019-06-18T02:46:13.279Z,56.10
2019-06-18T02:48:42.503Z,56.30
2019-06-18T02:51:13.017Z,56.10
2019-06-18T02:53:43.193Z,56.10
2019-06-18T02:56:13.005Z,56.30
2019-06-18T02:58:42.242Z,56.30
2019-06-18T03:01:38.008Z,56.40
2019-06-18T03:04:07.255Z,56.60
2019-06-18T03:06:36.311Z,56.60
2019-06-18T03:09:08.062Z,57.10
2019-06-18T03:11:36.577Z,57.50
2019-06-18T03:14:05.591Z,57.60
2019-06-18T03:16:34.011Z,57.40
2019-06-18T03:19:02.517Z,57.40
2019-06-18T03:21:33.192Z,57.40
2019-06-18T03:24:02.554Z,57.40
2019-06-18T03:26:32.945Z,57.50
2019-06-18T03:29:02.588Z,57.60
2019-06-18T03:31:34.556Z,57.60
2019-06-18T03:34:05.116Z,57.60
2019-06-18T03:36:32.807Z,57.50
2019-06-18T03:39:02.448Z,57.70
2019-06-18T03:41:32.175Z,58.10
2019-06-18T03:43:59.847Z,57.40
2019-06-18T03:46:27.881Z,57.40
2019-06-18T03:48:56.248Z,57.60
2019-06-18T03:51:28.226Z,57.60
2019-06-18T03:53:57.576Z,57.60
2019-06-18T03:56:26.209Z,58.00
2019-06-18T03:58:54.112Z,58.00
2019-06-18T04:01:28.503Z,58.20
2019-06-18T04:03:56.402Z,58.50
2019-06-18T04:06:24.856Z,59.00
2019-06-18T04:08:53.186Z,59.20
2019-06-18T04:11:22.122Z,58.90
2019-06-18T04:13:53.104Z,58.20
2019-06-18T04:16:22.312Z,58.40
2019-06-18T04:18:52.803Z,58.50
2019-06-18T04:21:23.189Z,58.60
2019-06-18T04:23:52.488Z,58.70
2019-06-18T04:26:23.141Z,58.30
2019-06-18T04:28:53.018Z,58.30
2019-06-18T04:31:22.829Z,57.80
2019-06-18T04:33:52.477Z,58.00
2019-06-18T04:36:23.371Z,57.30
2019-06-18T04:38:52.303Z,57.20
2019-06-18T04:41:22.440Z,57.00
2019-06-18T04:43:53.088Z,56.70
2019-06-18T04:46:23.507Z,57.20
2019-06-18T04:48:53.195Z,57.10
2019-06-18T04:51:22.781Z,56.60
2019-06-18T04:53:53.348Z,56.40
2019-06-18T04:56:22.342Z,55.60
2019-06-18T04:58:52.873Z,55.40
2019-06-18T05:01:26.596Z,55.00
2019-06-18T05:03:54.741Z,54.90
2019-06-18T05:06:22.797Z,54.20
2019-06-18T05:08:53.093Z,54.20
2019-06-18T05:11:23.627Z,53.80
2019-06-18T05:13:53.967Z,53.40
2019-06-18T05:16:23.265Z,53.00
2019-06-18T05:18:53.361Z,51.70
2019-06-18T05:21:22.759Z,51.90
2019-06-18T05:23:53.467Z,51.40
2019-06-18T05:26:23.577Z,51.00
2019-06-18T05:28:52.576Z,51.90
2019-06-18T05:31:23.008Z,51.10
2019-06-18T05:33:52.717Z,50.60
2019-06-18T05:36:19.914Z,50.60
2019-06-18T05:38:47.640Z,49.60
2019-06-18T05:41:18.017Z,48.60
2019-06-18T05:43:46.345Z,48.60
2019-06-18T05:46:14.715Z,48.10
2019-06-18T05:48:53.717Z,47.60
2019-06-18T05:51:12.787Z,48.50
2019-06-18T05:53:42.863Z,47.80
2019-06-18T05:56:15.281Z,47.60
2019-06-18T05:58:43.275Z,46.60
2019-06-18T06:01:13.117Z,46.10
2019-06-18T06:03:42.460Z,45.30
2019-06-18T06:06:13.167Z,45.30
2019-06-18T06:08:42.940Z,45.40
2019-06-18T06:11:12.635Z,44.80
2019-06-18T06:13:42.668Z,44.40
2019-06-18T06:16:13.040Z,44.50
2019-06-18T06:18:42.899Z,44.50
2019-06-18T06:21:12.854Z,44.40
2019-06-18T06:23:40.409Z,43.90
2019-06-18T06:26:08.522Z,43.50
2019-06-18T06:28:36.520Z,43.50
2019-06-18T06:31:05.181Z,43.00
2019-06-18T06:33:33.716Z,41.90
2019-06-18T06:36:02.736Z,42.00
2019-06-18T06:38:32.597Z,41.40
2019-06-18T06:41:03.134Z,40.20
2019-06-18T06:43:33.144Z,40.00
2019-06-18T06:46:03.979Z,39.60
2019-06-18T06:48:32.965Z,39.60
2019-06-18T06:51:02.912Z,38.40
2019-06-18T06:53:33.220Z,38.20
2019-06-18T06:56:02.392Z,37.80
2019-06-18T06:58:33.310Z,37.20
2019-06-18T07:01:03.380Z,36.40
2019-06-18T07:03:52.761Z,36.10
2019-06-18T07:06:22.597Z,34.90
2019-06-18T07:08:52.409Z,34.90
2019-06-18T07:11:22.892Z,34.00
2019-06-18T07:13:53.979Z,33.70
2019-06-18T07:16:43.786Z,32.40
2019-06-18T07:19:12.666Z,30.30
2019-06-18T07:21:43.189Z,30.40
2019-06-18T07:24:12.448Z,30.00
2019-06-18T07:26:42.533Z,29.50
2019-06-18T07:29:14.088Z,29.00
2019-06-18T07:31:43.498Z,29.20
2019-06-18T07:34:13.891Z,29.80
2019-06-18T07:36:42.823Z,28.90
2019-06-18T07:39:13.197Z,28.10
2019-06-18T07:41:45.837Z,27.70
2019-06-18T07:44:14.126Z,27.10
2019-06-18T07:46:43.263Z,26.40
2019-06-18T07:49:13.483Z,26.20
2019-06-18T07:51:42.486Z,25.50
2019-06-18T07:54:12.574Z,25.60
2019-06-18T07:56:43.286Z,25.00
2019-06-18T07:59:13.106Z,24.80
2019-06-18T08:01:43.272Z,23.90
2019-06-18T08:04:13.410Z,23.30
2019-06-18T08:06:43.777Z,22.70
2019-06-18T08:09:13.757Z,21.70
2019-06-18T08:11:42.829Z,21.20
2019-06-18T08:14:13.596Z,21.20
2019-06-18T08:16:42.748Z,20.90
2019-06-18T08:19:13.101Z,20.40
2019-06-18T08:21:42.900Z,19.50
2019-06-18T08:24:10.112Z,19.50
2019-06-18T08:26:38.474Z,19.30
2019-06-18T08:29:08.799Z,18.20
2019-06-18T08:31:53.200Z,19.10
2019-06-18T08:34:12.491Z,17.80
2019-06-18T08:36:43.526Z,18.00
2019-06-18T08:39:13.927Z,17.60
2019-06-18T08:41:43.160Z,16.90
2019-06-18T08:44:32.725Z,16.30
2019-06-18T08:47:02.982Z,15.20
2019-06-18T08:49:33.395Z,16.20
2019-06-18T08:52:02.735Z,15.60
2019-06-18T08:54:32.453Z,16.30
2019-06-18T08:57:04.339Z,16.10
2019-06-18T08:59:33.315Z,16.70
2019-06-18T09:02:02.659Z,16.70
2019-06-18T09:04:33.255Z,16.80
2019-06-18T09:07:03.080Z,16.40
2019-06-18T09:09:32.174Z,16.10
2019-06-18T09:12:03.344Z,16.70
2019-06-18T09:14:33.031Z,17.20
2019-06-18T09:17:03.269Z,18.30
2019-06-18T09:19:32.847Z,19.70
2019-06-18T09:22:03.168Z,21.90
2019-06-18T09:24:32.958Z,23.00
2019-06-18T09:27:02.957Z,24.10
2019-06-18T09:29:33.917Z,25.20
2019-06-18T09:32:03.881Z,25.30
2019-06-18T09:34:35.116Z,26.00
2019-06-18T09:37:08.136Z,26.30
2019-06-18T09:39:38.290Z,26.50
2019-06-18T09:42:07.085Z,26.10
2019-06-18T09:44:35.574Z,25.90
2019-06-18T09:47:05.723Z,26.20
2019-06-18T09:49:34.325Z,26.00
2019-06-18T09:52:02.499Z,25.80
2019-06-18T09:54:32.597Z,25.80
2019-06-18T09:57:03.181Z,26.50
2019-06-18T09:59:33.033Z,26.60
2019-06-18T10:02:02.533Z,27.40
2019-06-18T10:04:32.180Z,26.90
2019-06-18T10:07:03.957Z,26.60
2019-06-18T10:09:33.497Z,26.50
2019-06-18T10:12:04.964Z,26.30
2019-06-18T10:14:33.361Z,25.10
2019-06-18T10:17:03.970Z,25.80
2019-06-18T10:19:32.883Z,26.10
2019-06-18T10:22:03.082Z,25.90
2019-06-18T10:24:32.901Z,25.30
2019-06-18T10:27:02.806Z,25.40
2019-06-18T10:29:45.932Z,25.50
2019-06-18T10:32:03.403Z,25.20
2019-06-18T10:34:32.806Z,24.70
2019-06-18T10:37:04.608Z,24.90
2019-06-18T10:39:32.830Z,24.30
2019-06-18T10:42:00.160Z,23.90
2019-06-18T10:44:28.154Z,23.10
2019-06-18T10:46:56.537Z,24.00
2019-06-18T10:49:24.593Z,23.80
2019-06-18T10:51:57.765Z,24.30
2019-06-18T10:54:22.964Z,23.60
2019-06-18T10:56:53.346Z,23.40
2019-06-18T10:59:22.528Z,23.80
2019-06-18T11:01:52.694Z,23.90
2019-06-18T11:04:21.010Z,23.70
2019-06-18T11:06:49.224Z,23.00
2019-06-18T11:09:16.531Z,22.70
2019-06-18T11:11:44.485Z,23.10
2019-06-18T11:14:16.073Z,24.20
2019-06-18T11:16:44.905Z,23.70
2019-06-18T11:19:13.086Z,22.90
2019-06-18T11:21:43.558Z,22.30
2019-06-18T11:24:13.428Z,22.90
2019-06-18T11:26:43.705Z,22.80
2019-06-18T11:29:11.257Z,22.30
2019-06-18T11:31:39.149Z,21.60
2019-06-18T11:34:08.054Z,22.50
2019-06-18T11:36:36.331Z,23.10
2019-06-18T11:39:05.317Z,22.80
2019-06-18T11:41:33.274Z,23.30
2019-06-18T11:44:03.473Z,23.60
2019-06-18T11:46:31.127Z,23.90
2019-06-18T11:48:59.142Z,23.90
2019-06-18T11:51:27.390Z,23.80
2019-06-18T11:53:55.699Z,23.80
2019-06-18T11:56:25.228Z,23.00
2019-06-18T11:58:55.835Z,23.50
2019-06-18T12:01:26.134Z,23.70
2019-06-18T12:03:54.619Z,23.50
2019-06-18T12:06:23.280Z,23.30
2019-06-18T12:08:53.335Z,23.70
2019-06-18T12:11:22.804Z,25.10
2019-06-18T12:13:52.794Z,23.20
2019-06-18T12:16:22.575Z,23.70
2019-06-18T12:18:53.379Z,23.70
2019-06-18T12:21:22.334Z,22.80
2019-06-18T12:23:53.804Z,22.60
2019-06-18T12:26:22.905Z,22.60
2019-06-18T12:28:52.916Z,23.00
2019-06-18T12:31:22.363Z,23.30
2019-06-18T12:33:49.874Z,22.00
2019-06-18T12:36:17.420Z,23.60
2019-06-18T12:38:45.677Z,23.80
2019-06-18T12:41:14.576Z,23.50
2019-06-18T12:43:45.374Z,23.70
2019-06-18T12:46:13.303Z,23.90
2019-06-18T12:48:43.310Z,23.50
2019-06-18T12:51:13.708Z,23.60
2019-06-18T12:54:00.523Z,24.00
2019-06-18T12:56:13.282Z,23.10
2019-06-18T12:58:43.066Z,23.20
2019-06-18T13:01:12.596Z,23.30
2019-06-18T13:03:43.592Z,23.90
2019-06-18T13:06:12.896Z,24.00
2019-06-18T13:08:43.650Z,24.40
2019-06-18T13:11:12.681Z,24.20
2019-06-18T13:13:43.913Z,24.20
2019-06-18T13:16:12.685Z,23.00
2019-06-18T13:18:42.817Z,23.20
2019-06-18T13:21:13.031Z,23.30
2019-06-18T13:23:42.823Z,23.60
2019-06-18T13:26:12.677Z,24.50
2019-06-18T13:28:43.064Z,23.40
2019-06-18T13:31:23.893Z,23.80
2019-06-18T13:33:53.272Z,23.90
2019-06-18T13:36:22.998Z,24.10
2019-06-18T13:38:52.434Z,24.20
2019-06-18T13:41:20.644Z,22.90
2019-06-18T13:43:49.569Z,23.90
2019-06-18T13:46:23.446Z,21.70
2019-06-18T13:48:53.470Z,23.60
2019-06-18T13:51:22.661Z,23.40
2019-06-18T13:53:50.560Z,22.60
2019-06-18T13:56:18.802Z,22.10
2019-06-18T13:58:46.500Z,22.30
2019-06-18T14:01:13.932Z,23.70
2019-06-18T14:03:43.462Z,23.60
2019-06-18T14:06:14.528Z,24.50
2019-06-18T14:08:45.318Z,24.80
2019-06-18T14:11:13.582Z,25.20
2019-06-18T14:13:43.073Z,24.10
2019-06-18T14:16:13.744Z,23.70
2019-06-18T14:18:42.685Z,24.50
2019-06-18T14:21:13.138Z,24.00
2019-06-18T14:23:42.986Z,25.20
2019-06-18T14:26:13.320Z,25.50
2019-06-18T14:28:43.110Z,25.50
2019-06-18T14:31:13.310Z,25.70
2019-06-18T14:33:41.942Z,24.50
2019-06-18T14:36:13.297Z,24.30
2019-06-18T14:38:42.956Z,25.70
2019-06-18T14:41:15.083Z,25.30
2019-06-18T14:43:43.012Z,26.40
2019-06-18T14:46:13.724Z,26.40
2019-06-18T14:48:43.247Z,25.70
2019-06-18T14:51:13.165Z,25.50
2019-06-18T14:53:43.764Z,26.40
2019-06-18T14:56:13.080Z,26.50
2019-06-18T14:58:41.525Z,23.80
2019-06-18T15:01:09.571Z,25.30
2019-06-18T15:03:37.544Z,26.40
2019-06-18T15:06:05.807Z,26.10
2019-06-18T15:08:34.209Z,23.70
2019-06-18T15:11:04.565Z,22.50
2019-06-18T15:13:33.229Z,22.80
2019-06-18T15:16:02.935Z,25.30
2019-06-18T15:18:33.780Z,22.70
2019-06-18T15:21:02.138Z,26.10
2019-06-18T15:23:30.063Z,25.60
2019-06-18T15:26:04.658Z,23.70
2019-06-18T15:28:29.854Z,23.10
2019-06-18T15:30:57.508Z,23.40
2019-06-18T15:33:25.531Z,22.70
2019-06-18T15:35:54.060Z,24.00
2019-06-18T15:38:23.269Z,23.80
2019-06-18T15:40:54.045Z,26.10
2019-06-18T15:43:22.697Z,24.60
2019-06-18T15:45:53.018Z,26.30
2019-06-18T15:48:20.360Z,26.70
2019-06-18T15:50:49.183Z,25.40
2019-06-18T15:53:17.133Z,26.20
2019-06-18T15:55:47.131Z,26.10
2019-06-18T15:58:16.226Z,25.30
2019-06-18T16:01:04.145Z,27.00
2019-06-18T16:03:13.424Z,27.10
2019-06-18T16:05:43.119Z,27.10
2019-06-18T16:08:14.833Z,26.70
2019-06-18T16:10:42.570Z,25.10
2019-06-18T16:13:11.334Z,25.90
2019-06-18T16:15:41.301Z,24.20
2019-06-18T16:18:09.793Z,26.50
2019-06-18T16:20:37.506Z,27.00
2019-06-18T16:23:05.945Z,27.20
2019-06-18T16:25:34.332Z,27.10
2019-06-18T16:28:03.388Z,27.10
2019-06-18T16:30:35.199Z,27.10
2019-06-18T16:33:04.557Z,27.10
2019-06-18T16:35:33.333Z,27.00
2019-06-18T16:38:02.790Z,27.00
2019-06-18T16:40:33.285Z,27.70
2019-06-18T16:43:03.605Z,26.90
2019-06-18T16:45:32.397Z,27.00
2019-06-18T16:48:03.524Z,27.00
2019-06-18T16:50:33.342Z,27.30
2019-06-18T16:53:03.066Z,27.60
2019-06-18T16:55:37.849Z,27.80
2019-06-18T16:58:06.566Z,27.70
2019-06-18T17:00:34.189Z,27.80
2019-06-18T17:03:06.508Z,27.90
2019-06-18T17:05:34.452Z,26.90
2019-06-18T17:08:04.809Z,28.10
2019-06-18T17:10:33.190Z,28.20
2019-06-18T17:13:02.458Z,28.30
2019-06-18T17:15:32.524Z,27.30
2019-06-18T17:18:03.059Z,28.50
2019-06-18T17:20:33.694Z,28.30
2019-06-18T17:23:03.301Z,28.70
2019-06-18T17:25:46.096Z,28.90
2019-06-18T17:28:02.842Z,28.60
2019-06-18T17:30:39.582Z,28.40
2019-06-18T17:33:22.345Z,29.10
2019-06-18T17:35:51.528Z,28.50
2019-06-18T17:38:19.151Z,28.90
2019-06-18T17:43:54.418Z,29.10
2019-06-18T17:46:14.774Z,29.20
2019-06-18T17:48:47.204Z,29.60
2019-06-18T17:51:17.441Z,29.60
2019-06-18T17:53:46.184Z,29.70
2019-06-18T17:56:14.483Z,29.80
2019-06-18T17:58:42.955Z,30.10
2019-06-18T18:01:13.610Z,30.10
2019-06-18T18:03:42.981Z,30.10
2019-06-18T18:06:18.809Z,30.20
2019-06-18T18:08:47.129Z,29.80
2019-06-18T18:11:15.356Z,30.70
2019-06-18T18:13:46.112Z,31.00
2019-06-18T18:16:17.525Z,31.10
2019-06-18T18:18:46.049Z,31.20
2019-06-18T18:21:14.418Z,31.20
2019-06-18T18:23:42.795Z,31.40
2019-06-18T18:26:20.523Z,29.90
2019-06-18T18:28:42.514Z,30.80
2019-06-18T18:31:13.554Z,28.40
2019-06-18T18:33:42.561Z,28.30
2019-06-18T18:36:13.148Z,29.90
2019-06-18T18:38:42.969Z,28.90
2019-06-18T18:41:13.057Z,30.30
2019-06-18T18:43:42.346Z,30.60
2019-06-18T18:46:12.907Z,29.90
2019-06-18T18:48:41.161Z,31.70
2019-06-18T18:51:13.224Z,31.80
2019-06-18T18:53:52.780Z,33.10
2019-06-18T18:56:36.056Z,34.10
2019-06-18T18:58:57.681Z,34.20
2019-06-18T19:01:25.270Z,35.60
2019-06-18T19:03:56.664Z,36.50
2019-06-18T19:06:24.879Z,36.40
2019-06-18T19:08:53.843Z,37.10
2019-06-18T19:11:21.857Z,37.60
2019-06-18T19:13:49.948Z,37.90
2019-06-18T19:16:18.377Z,38.80
2019-06-18T19:18:46.468Z,39.50
2019-06-18T19:21:14.841Z,40.30
2019-06-18T19:23:46.169Z,39.80
2019-06-18T19:26:17.256Z,40.20
2019-06-18T19:28:44.069Z,40.10
2019-06-18T19:31:13.926Z,40.10
2019-06-18T19:33:43.490Z,40.30
2019-06-18T19:36:12.965Z,40.60
2019-06-18T19:38:41.686Z,40.40
2019-06-18T19:41:10.020Z,40.80
2019-06-18T19:43:42.857Z,40.80
2019-06-18T19:46:13.680Z,40.90
2019-06-18T19:48:42.831Z,41.30
2019-06-18T19:51:12.993Z,41.20
2019-06-18T19:53:43.254Z,41.50
2019-06-18T19:56:12.187Z,41.40
2019-06-18T19:58:43.169Z,41.80
2019-06-18T20:01:13.391Z,41.60
2019-06-18T20:03:44.870Z,41.70
2019-06-18T20:06:13.747Z,41.70
2019-06-18T20:08:43.334Z,41.50
2019-06-18T20:11:14.189Z,41.40
2019-06-18T20:13:44.842Z,41.50
2019-06-18T20:16:13.398Z,41.90
2019-06-18T20:18:43.112Z,41.70
2019-06-18T20:21:12.846Z,41.80
2019-06-18T20:23:43.298Z,41.90
2019-06-18T20:26:13.136Z,42.00
2019-06-18T20:28:42.518Z,42.00
2019-06-18T20:31:13.355Z,41.60
2019-06-18T20:33:42.817Z,41.50
2019-06-18T20:36:13.002Z,41.30
2019-06-18T20:38:42.582Z,41.30
2019-06-18T20:41:12.921Z,41.60
2019-06-18T20:43:42.947Z,41.30
2019-06-18T20:46:12.626Z,41.20
2019-06-18T20:48:43.255Z,41.10
2019-06-18T20:51:13.000Z,41.10
2019-06-18T20:53:43.148Z,41.30
2019-06-18T20:56:13.166Z,41.20
2019-06-18T20:58:42.356Z,41.20
2019-06-18T21:01:13.134Z,41.20
2019-06-18T21:03:43.184Z,41.20
2019-06-18T21:06:12.540Z,41.20
2019-06-18T21:08:43.023Z,41.60
2019-06-18T21:11:12.795Z,41.20
2019-06-18T21:13:42.560Z,41.40
2019-06-18T21:16:12.314Z,41.50
2019-06-18T21:18:40.325Z,41.40
2019-06-18T21:21:09.334Z,41.50
2019-06-18T21:23:37.473Z,41.50
2019-06-18T21:26:05.666Z,41.30
2019-06-18T21:28:34.413Z,41.30
2019-06-18T21:31:03.649Z,41.30
2019-06-18T21:33:33.320Z,41.20
2019-06-18T21:36:04.141Z,41.20
2019-06-18T21:38:32.788Z,41.20
2019-06-18T21:41:03.243Z,41.10
2019-06-18T21:43:32.731Z,41.50
2019-06-18T21:46:02.565Z,41.10
2019-06-18T21:48:32.428Z,41.10
2019-06-18T21:51:02.447Z,41.00
2019-06-18T21:53:34.675Z,41.00
2019-06-18T21:56:03.550Z,40.90
2019-06-18T21:58:33.110Z,41.10
2019-06-18T22:01:03.273Z,40.90
2019-06-18T22:03:33.154Z,41.10
2019-06-18T22:06:02.721Z,41.10
2019-06-18T22:08:32.438Z,41.10
2019-06-18T22:11:02.769Z,41.20
2019-06-18T22:13:33.276Z,40.90
2019-06-18T22:16:02.805Z,40.80
2019-06-18T22:18:32.604Z,40.70
2019-06-18T22:21:05.011Z,41.00
2019-06-18T22:23:33.007Z,41.10
2019-06-18T22:26:02.296Z,40.90
2019-06-18T22:28:37.323Z,41.40
2019-06-18T22:31:02.365Z,41.60
2019-06-18T22:33:32.410Z,42.20
2019-06-18T22:36:00.724Z,42.00
2019-06-18T22:38:28.929Z,42.10
2019-06-18T22:40:56.874Z,42.50
2019-06-18T22:43:25.406Z,42.40
2019-06-18T22:45:53.540Z,42.60
2019-06-18T22:48:22.535Z,42.60
2019-06-18T22:50:53.167Z,42.60
2019-06-18T22:53:23.808Z,42.80
2019-06-18T22:55:51.351Z,42.80
2019-06-18T22:58:19.131Z,42.60
2019-06-18T23:00:47.663Z,42.80
2019-06-18T23:03:15.554Z,42.90
2019-06-18T23:05:44.035Z,42.80
2019-06-18T23:08:13.473Z,42.40
2019-06-18T23:10:42.157Z,42.70
2019-06-18T23:13:10.394Z,43.00
2019-06-18T23:15:38.870Z,42.80
2019-06-18T23:18:08.257Z,43.20
2019-06-18T23:20:43.362Z,43.00
2019-06-18T23:23:13.865Z,43.00
2019-06-18T23:25:42.036Z,43.10
2019-06-18T23:28:10.345Z,42.90
2019-06-18T23:30:38.411Z,43.10
2019-06-18T23:33:06.068Z,43.30
2019-06-18T23:35:34.399Z,43.40
2019-06-18T23:38:03.388Z,43.70
2019-06-18T23:40:32.358Z,43.60
2019-06-18T23:43:02.340Z,43.80
2019-06-18T23:45:32.866Z,43.80
2019-06-18T23:48:02.421Z,44.00
2019-06-18T23:50:32.956Z,44.10
2019-06-18T23:53:03.120Z,44.10
2019-06-18T23:55:33.285Z,44.10
2019-06-18T23:58:03.190Z,44.10
